sensor_id;sensor_type;location;lat;lon;timestamp;P1;durP1;ratioP1;P2;durP2;ratioP2
41077;SDS011;26823;42.662;23.352;2024-01-11T00:02:21;44.22;;;22.45;;
41077;SDS011;26823;42.662;23.352;2024-01-11T00:04:47;48.10;;;23.65;;
41077;SDS011;26823;42.662;23.352;2024-01-11T00:07:12;47.28;;;24.48;;
41077;SDS011;26823;42.662;23.352;2024-01-11T00:09:41;48.33;;;23.02;;
41077;SDS011;26823;42.662;23.352;2024-01-11T00:12:07;49.63;;;22.30;;
41077;SDS011;26823;42.662;23.352;2024-01-11T00:14:34;46.80;;;22.77;;
41077;SDS011;26823;42.662;23.352;2024-01-11T00:17:00;45.80;;;23.75;;
41077;SDS011;26823;42.662;23.352;2024-01-11T00:19:26;53.35;;;23.83;;
41077;SDS011;26823;42.662;23.352;2024-01-11T00:21:51;55.35;;;25.90;;
41077;SDS011;26823;42.662;23.352;2024-01-11T00:24:17;49.78;;;23.55;;
41077;SDS011;26823;42.662;23.352;2024-01-11T00:26:42;50.33;;;22.77;;
41077;SDS011;26823;42.662;23.352;2024-01-11T00:29:08;59.03;;;24.77;;
41077;SDS011;26823;42.662;23.352;2024-01-11T00:31:33;52.70;;;23.48;;
41077;SDS011;26823;42.662;23.352;2024-01-11T00:33:59;48.97;;;23.38;;
41077;SDS011;26823;42.662;23.352;2024-01-11T00:36:24;54.75;;;24.65;;
41077;SDS011;26823;42.662;23.352;2024-01-11T00:38:49;48.35;;;23.98;;
41077;SDS011;26823;42.662;23.352;2024-01-11T00:41:15;55.58;;;25.63;;
41077;SDS011;26823;42.662;23.352;2024-01-11T00:43:40;53.17;;;25.38;;
41077;SDS011;26823;42.662;23.352;2024-01-11T00:46:06;48.58;;;26.17;;
41077;SDS011;26823;42.662;23.352;2024-01-11T00:48:32;53.92;;;24.52;;
41077;SDS011;26823;42.662;23.352;2024-01-11T00:50:57;50.67;;;22.92;;
41077;SDS011;26823;42.662;23.352;2024-01-11T00:53:23;47.72;;;23.58;;
41077;SDS011;26823;42.662;23.352;2024-01-11T00:55:48;48.90;;;24.55;;
41077;SDS011;26823;42.662;23.352;2024-01-11T00:58:13;51.25;;;24.88;;
41077;SDS011;26823;42.662;23.352;2024-01-11T01:00:39;49.45;;;24.42;;
41077;SDS011;26823;42.662;23.352;2024-01-11T01:03:04;54.13;;;24.40;;
41077;SDS011;26823;42.662;23.352;2024-01-11T01:05:30;50.40;;;25.45;;
41077;SDS011;26823;42.662;23.352;2024-01-11T01:07:55;57.53;;;25.52;;
41077;SDS011;26823;42.662;23.352;2024-01-11T01:10:21;50.13;;;25.15;;
41077;SDS011;26823;42.662;23.352;2024-01-11T01:12:46;56.22;;;24.75;;
41077;SDS011;26823;42.662;23.352;2024-01-11T01:15:11;49.72;;;22.83;;
41077;SDS011;26823;42.662;23.352;2024-01-11T01:17:37;41.35;;;21.67;;
41077;SDS011;26823;42.662;23.352;2024-01-11T01:20:03;47.15;;;24.00;;
41077;SDS011;26823;42.662;23.352;2024-01-11T01:22:29;48.83;;;23.33;;
41077;SDS011;26823;42.662;23.352;2024-01-11T01:24:54;57.95;;;25.52;;
41077;SDS011;26823;42.662;23.352;2024-01-11T01:27:20;53.13;;;25.15;;
41077;SDS011;26823;42.662;23.352;2024-01-11T01:29:45;44.35;;;23.55;;
41077;SDS011;26823;42.662;23.352;2024-01-11T01:32:11;45.63;;;24.38;;
41077;SDS011;26823;42.662;23.352;2024-01-11T01:34:36;50.55;;;23.88;;
41077;SDS011;26823;42.662;23.352;2024-01-11T01:37:02;49.45;;;25.08;;
41077;SDS011;26823;42.662;23.352;2024-01-11T01:39:27;51.63;;;24.88;;
41077;SDS011;26823;42.662;23.352;2024-01-11T01:41:53;51.72;;;23.52;;
41077;SDS011;26823;42.662;23.352;2024-01-11T01:44:18;46.45;;;23.77;;
41077;SDS011;26823;42.662;23.352;2024-01-11T01:46:44;52.42;;;23.20;;
41077;SDS011;26823;42.662;23.352;2024-01-11T01:49:10;48.67;;;24.77;;
41077;SDS011;26823;42.662;23.352;2024-01-11T01:51:37;45.75;;;23.08;;
41077;SDS011;26823;42.662;23.352;2024-01-11T01:54:03;50.22;;;24.55;;
41077;SDS011;26823;42.662;23.352;2024-01-11T01:56:29;53.70;;;23.98;;
41077;SDS011;26823;42.662;23.352;2024-01-11T01:58:54;43.00;;;21.90;;
41077;SDS011;26823;42.662;23.352;2024-01-11T02:01:20;47.35;;;23.88;;
41077;SDS011;26823;42.662;23.352;2024-01-11T02:03:49;49.63;;;22.80;;
41077;SDS011;26823;42.662;23.352;2024-01-11T02:06:16;37.80;;;18.55;;
41077;SDS011;26823;42.662;23.352;2024-01-11T02:08:43;34.53;;;15.85;;
41077;SDS011;26823;42.662;23.352;2024-01-11T02:11:10;39.72;;;18.10;;
41077;SDS011;26823;42.662;23.352;2024-01-11T02:13:36;40.15;;;18.15;;
41077;SDS011;26823;42.662;23.352;2024-01-11T02:16:02;44.45;;;19.73;;
41077;SDS011;26823;42.662;23.352;2024-01-11T02:18:29;50.63;;;21.42;;
41077;SDS011;26823;42.662;23.352;2024-01-11T02:20:54;48.65;;;23.08;;
41077;SDS011;26823;42.662;23.352;2024-01-11T02:23:21;51.35;;;22.95;;
41077;SDS011;26823;42.662;23.352;2024-01-11T02:25:49;49.80;;;20.48;;
41077;SDS011;26823;42.662;23.352;2024-01-11T02:28:15;51.08;;;21.38;;
41077;SDS011;26823;42.662;23.352;2024-01-11T02:30:40;43.92;;;21.30;;
41077;SDS011;26823;42.662;23.352;2024-01-11T02:33:05;50.63;;;21.83;;
41077;SDS011;26823;42.662;23.352;2024-01-11T02:35:31;46.05;;;22.33;;
41077;SDS011;26823;42.662;23.352;2024-01-11T02:37:57;53.03;;;24.83;;
41077;SDS011;26823;42.662;23.352;2024-01-11T02:40:25;48.97;;;21.75;;
41077;SDS011;26823;42.662;23.352;2024-01-11T02:42:51;56.97;;;22.90;;
41077;SDS011;26823;42.662;23.352;2024-01-11T02:45:16;51.22;;;21.50;;
41077;SDS011;26823;42.662;23.352;2024-01-11T02:47:42;50.42;;;21.95;;
41077;SDS011;26823;42.662;23.352;2024-01-11T02:50:07;55.60;;;23.35;;
41077;SDS011;26823;42.662;23.352;2024-01-11T02:52:33;53.78;;;22.27;;
41077;SDS011;26823;42.662;23.352;2024-01-11T02:54:59;51.45;;;22.88;;
41077;SDS011;26823;42.662;23.352;2024-01-11T02:57:25;49.80;;;24.23;;
41077;SDS011;26823;42.662;23.352;2024-01-11T02:59:50;42.00;;;21.25;;
41077;SDS011;26823;42.662;23.352;2024-01-11T03:02:17;45.38;;;21.13;;
41077;SDS011;26823;42.662;23.352;2024-01-11T03:04:42;37.60;;;19.33;;
41077;SDS011;26823;42.662;23.352;2024-01-11T03:07:08;42.85;;;18.85;;
41077;SDS011;26823;42.662;23.352;2024-01-11T03:09:33;45.67;;;19.15;;
41077;SDS011;26823;42.662;23.352;2024-01-11T03:11:59;44.72;;;20.02;;
41077;SDS011;26823;42.662;23.352;2024-01-11T03:14:25;46.40;;;19.20;;
41077;SDS011;26823;42.662;23.352;2024-01-11T03:16:50;48.72;;;20.05;;
41077;SDS011;26823;42.662;23.352;2024-01-11T03:19:16;50.58;;;19.60;;
41077;SDS011;26823;42.662;23.352;2024-01-11T03:21:45;39.38;;;18.33;;
41077;SDS011;26823;42.662;23.352;2024-01-11T03:24:11;41.55;;;18.42;;
41077;SDS011;26823;42.662;23.352;2024-01-11T03:26:38;39.30;;;18.48;;
41077;SDS011;26823;42.662;23.352;2024-01-11T03:29:03;41.30;;;19.17;;
41077;SDS011;26823;42.662;23.352;2024-01-11T03:31:28;44.45;;;20.23;;
41077;SDS011;26823;42.662;23.352;2024-01-11T03:33:54;39.42;;;18.25;;
41077;SDS011;26823;42.662;23.352;2024-01-11T03:36:22;41.08;;;19.95;;
41077;SDS011;26823;42.662;23.352;2024-01-11T03:38:48;35.03;;;18.15;;
41077;SDS011;26823;42.662;23.352;2024-01-11T03:41:14;39.90;;;19.13;;
41077;SDS011;26823;42.662;23.352;2024-01-11T03:43:39;33.42;;;17.40;;
41077;SDS011;26823;42.662;23.352;2024-01-11T03:46:05;32.47;;;17.80;;
41077;SDS011;26823;42.662;23.352;2024-01-11T03:48:30;35.20;;;15.80;;
41077;SDS011;26823;42.662;23.352;2024-01-11T03:50:56;35.30;;;16.35;;
41077;SDS011;26823;42.662;23.352;2024-01-11T03:53:22;21.35;;;13.10;;
41077;SDS011;26823;42.662;23.352;2024-01-11T03:55:47;30.67;;;13.80;;
41077;SDS011;26823;42.662;23.352;2024-01-11T03:58:13;35.08;;;13.77;;
41077;SDS011;26823;42.662;23.352;2024-01-11T04:00:39;25.70;;;12.63;;
41077;SDS011;26823;42.662;23.352;2024-01-11T04:03:05;35.42;;;13.10;;
41077;SDS011;26823;42.662;23.352;2024-01-11T04:05:31;30.52;;;12.07;;
41077;SDS011;26823;42.662;23.352;2024-01-11T04:07:57;23.80;;;11.85;;
41077;SDS011;26823;42.662;23.352;2024-01-11T04:10:22;23.17;;;11.65;;
41077;SDS011;26823;42.662;23.352;2024-01-11T04:12:47;26.67;;;12.00;;
41077;SDS011;26823;42.662;23.352;2024-01-11T04:15:13;30.77;;;13.25;;
41077;SDS011;26823;42.662;23.352;2024-01-11T04:17:39;22.83;;;10.90;;
41077;SDS011;26823;42.662;23.352;2024-01-11T04:20:05;18.30;;;9.88;;
41077;SDS011;26823;42.662;23.352;2024-01-11T04:22:35;25.45;;;11.65;;
41077;SDS011;26823;42.662;23.352;2024-01-11T04:25:01;23.92;;;11.43;;
41077;SDS011;26823;42.662;23.352;2024-01-11T04:27:26;22.17;;;11.73;;
41077;SDS011;26823;42.662;23.352;2024-01-11T04:29:52;31.02;;;12.43;;
41077;SDS011;26823;42.662;23.352;2024-01-11T04:32:17;23.35;;;11.00;;
41077;SDS011;26823;42.662;23.352;2024-01-11T04:34:43;20.77;;;10.68;;
41077;SDS011;26823;42.662;23.352;2024-01-11T04:37:08;22.33;;;11.98;;
41077;SDS011;26823;42.662;23.352;2024-01-11T04:39:34;26.08;;;13.10;;
41077;SDS011;26823;42.662;23.352;2024-01-11T04:41:59;24.27;;;11.07;;
41077;SDS011;26823;42.662;23.352;2024-01-11T04:44:25;29.08;;;12.20;;
41077;SDS011;26823;42.662;23.352;2024-01-11T04:46:51;21.92;;;11.73;;
41077;SDS011;26823;42.662;23.352;2024-01-11T04:49:17;30.73;;;13.70;;
41077;SDS011;26823;42.662;23.352;2024-01-11T04:51:42;24.90;;;10.98;;
41077;SDS011;26823;42.662;23.352;2024-01-11T04:54:08;19.17;;;11.27;;
41077;SDS011;26823;42.662;23.352;2024-01-11T04:56:33;26.20;;;12.00;;
41077;SDS011;26823;42.662;23.352;2024-01-11T04:58:59;20.77;;;11.18;;
41077;SDS011;26823;42.662;23.352;2024-01-11T05:01:24;32.05;;;12.90;;
41077;SDS011;26823;42.662;23.352;2024-01-11T05:03:49;26.55;;;11.77;;
41077;SDS011;26823;42.662;23.352;2024-01-11T05:06:18;26.98;;;13.00;;
41077;SDS011;26823;42.662;23.352;2024-01-11T05:08:49;29.02;;;13.40;;
41077;SDS011;26823;42.662;23.352;2024-01-11T05:11:17;29.98;;;11.85;;
41077;SDS011;26823;42.662;23.352;2024-01-11T05:13:43;26.02;;;12.10;;
41077;SDS011;26823;42.662;23.352;2024-01-11T05:18:49;32.63;;;10.65;;
41077;SDS011;26823;42.662;23.352;2024-01-11T05:21:16;24.40;;;11.73;;
41077;SDS011;26823;42.662;23.352;2024-01-11T05:23:42;25.67;;;11.65;;
41077;SDS011;26823;42.662;23.352;2024-01-11T05:26:08;28.20;;;11.02;;
41077;SDS011;26823;42.662;23.352;2024-01-11T05:28:34;22.15;;;11.13;;
41077;SDS011;26823;42.662;23.352;2024-01-11T05:30:59;27.25;;;10.75;;
41077;SDS011;26823;42.662;23.352;2024-01-11T05:33:25;26.13;;;12.90;;
41077;SDS011;26823;42.662;23.352;2024-01-11T05:35:50;22.58;;;11.88;;
41077;SDS011;26823;42.662;23.352;2024-01-11T05:38:17;30.23;;;11.50;;
41077;SDS011;26823;42.662;23.352;2024-01-11T05:40:42;25.80;;;11.88;;
41077;SDS011;26823;42.662;23.352;2024-01-11T05:43:07;23.77;;;11.93;;
41077;SDS011;26823;42.662;23.352;2024-01-11T05:45:33;25.48;;;12.80;;
41077;SDS011;26823;42.662;23.352;2024-01-11T05:47:59;24.80;;;11.25;;
41077;SDS011;26823;42.662;23.352;2024-01-11T05:50:24;27.10;;;13.20;;
41077;SDS011;26823;42.662;23.352;2024-01-11T05:52:50;26.02;;;12.90;;
41077;SDS011;26823;42.662;23.352;2024-01-11T05:55:17;19.17;;;12.02;;
41077;SDS011;26823;42.662;23.352;2024-01-11T05:57:42;26.45;;;12.75;;
41077;SDS011;26823;42.662;23.352;2024-01-11T06:00:07;23.20;;;12.55;;
41077;SDS011;26823;42.662;23.352;2024-01-11T06:02:33;26.48;;;13.00;;
41077;SDS011;26823;42.662;23.352;2024-01-11T06:04:58;34.42;;;15.70;;
41077;SDS011;26823;42.662;23.352;2024-01-11T06:07:24;35.58;;;12.95;;
41077;SDS011;26823;42.662;23.352;2024-01-11T06:09:49;29.23;;;14.75;;
41077;SDS011;26823;42.662;23.352;2024-01-11T06:12:14;29.35;;;15.05;;
41077;SDS011;26823;42.662;23.352;2024-01-11T06:14:40;34.30;;;15.70;;
41077;SDS011;26823;42.662;23.352;2024-01-11T06:17:05;31.73;;;18.13;;
41077;SDS011;26823;42.662;23.352;2024-01-11T06:19:31;33.13;;;16.85;;
41077;SDS011;26823;42.662;23.352;2024-01-11T06:21:56;37.58;;;17.60;;
41077;SDS011;26823;42.662;23.352;2024-01-11T06:24:22;31.63;;;17.02;;
41077;SDS011;26823;42.662;23.352;2024-01-11T06:26:47;43.67;;;17.33;;
41077;SDS011;26823;42.662;23.352;2024-01-11T06:29:13;42.75;;;19.67;;
41077;SDS011;26823;42.662;23.352;2024-01-11T06:31:38;44.00;;;18.42;;
41077;SDS011;26823;42.662;23.352;2024-01-11T06:34:03;42.33;;;19.52;;
41077;SDS011;26823;42.662;23.352;2024-01-11T06:36:29;43.47;;;20.70;;
41077;SDS011;26823;42.662;23.352;2024-01-11T06:38:55;37.88;;;16.75;;
41077;SDS011;26823;42.662;23.352;2024-01-11T06:41:20;41.45;;;19.05;;
41077;SDS011;26823;42.662;23.352;2024-01-11T06:43:46;41.05;;;19.75;;
41077;SDS011;26823;42.662;23.352;2024-01-11T06:46:11;37.03;;;18.88;;
41077;SDS011;26823;42.662;23.352;2024-01-11T06:48:36;44.08;;;20.92;;
41077;SDS011;26823;42.662;23.352;2024-01-11T06:51:03;42.10;;;19.85;;
41077;SDS011;26823;42.662;23.352;2024-01-11T06:53:28;40.15;;;19.67;;
41077;SDS011;26823;42.662;23.352;2024-01-11T06:55:54;43.75;;;21.10;;
41077;SDS011;26823;42.662;23.352;2024-01-11T06:58:22;54.45;;;21.33;;
41077;SDS011;26823;42.662;23.352;2024-01-11T07:00:48;43.28;;;22.10;;
41077;SDS011;26823;42.662;23.352;2024-01-11T07:03:14;53.47;;;24.42;;
41077;SDS011;26823;42.662;23.352;2024-01-11T07:05:40;54.80;;;25.67;;
41077;SDS011;26823;42.662;23.352;2024-01-11T07:08:05;55.30;;;26.02;;
41077;SDS011;26823;42.662;23.352;2024-01-11T07:10:31;58.70;;;28.20;;
41077;SDS011;26823;42.662;23.352;2024-01-11T07:12:57;64.60;;;29.73;;
41077;SDS011;26823;42.662;23.352;2024-01-11T07:15:22;64.85;;;32.63;;
41077;SDS011;26823;42.662;23.352;2024-01-11T07:17:48;64.65;;;29.40;;
41077;SDS011;26823;42.662;23.352;2024-01-11T07:20:14;57.55;;;29.95;;
41077;SDS011;26823;42.662;23.352;2024-01-11T07:22:41;60.30;;;28.42;;
41077;SDS011;26823;42.662;23.352;2024-01-11T07:25:07;56.28;;;28.98;;
41077;SDS011;26823;42.662;23.352;2024-01-11T07:27:35;56.38;;;28.60;;
41077;SDS011;26823;42.662;23.352;2024-01-11T07:30:01;62.05;;;29.27;;
41077;SDS011;26823;42.662;23.352;2024-01-11T07:32:27;55.20;;;27.40;;
41077;SDS011;26823;42.662;23.352;2024-01-11T07:34:53;50.38;;;24.85;;
41077;SDS011;26823;42.662;23.352;2024-01-11T07:37:18;43.80;;;23.38;;
41077;SDS011;26823;42.662;23.352;2024-01-11T07:39:43;50.60;;;22.58;;
41077;SDS011;26823;42.662;23.352;2024-01-11T07:42:09;46.10;;;23.00;;
41077;SDS011;26823;42.662;23.352;2024-01-11T07:44:34;46.05;;;23.35;;
41077;SDS011;26823;42.662;23.352;2024-01-11T07:46:59;50.45;;;23.98;;
41077;SDS011;26823;42.662;23.352;2024-01-11T07:49:25;41.03;;;21.70;;
41077;SDS011;26823;42.662;23.352;2024-01-11T07:51:51;44.55;;;24.83;;
41077;SDS011;26823;42.662;23.352;2024-01-11T07:54:16;59.00;;;28.13;;
41077;SDS011;26823;42.662;23.352;2024-01-11T07:56:42;60.03;;;29.67;;
41077;SDS011;26823;42.662;23.352;2024-01-11T07:59:07;59.08;;;30.58;;
41077;SDS011;26823;42.662;23.352;2024-01-11T08:01:33;60.97;;;30.23;;
41077;SDS011;26823;42.662;23.352;2024-01-11T08:04:00;69.10;;;33.00;;
41077;SDS011;26823;42.662;23.352;2024-01-11T08:06:27;60.58;;;32.00;;
41077;SDS011;26823;42.662;23.352;2024-01-11T08:08:53;59.83;;;31.60;;
41077;SDS011;26823;42.662;23.352;2024-01-11T08:11:18;57.83;;;30.77;;
41077;SDS011;26823;42.662;23.352;2024-01-11T08:13:44;51.17;;;28.17;;
41077;SDS011;26823;42.662;23.352;2024-01-11T08:16:14;40.30;;;24.30;;
41077;SDS011;26823;42.662;23.352;2024-01-11T08:18:43;41.55;;;23.70;;
41077;SDS011;26823;42.662;23.352;2024-01-11T08:21:09;44.63;;;25.40;;
41077;SDS011;26823;42.662;23.352;2024-01-11T08:23:35;39.42;;;24.15;;
41077;SDS011;26823;42.662;23.352;2024-01-11T08:26:02;44.05;;;24.08;;
41077;SDS011;26823;42.662;23.352;2024-01-11T08:28:28;38.88;;;24.60;;
41077;SDS011;26823;42.662;23.352;2024-01-11T08:30:53;42.15;;;24.67;;
41077;SDS011;26823;42.662;23.352;2024-01-11T08:33:19;44.13;;;25.00;;
41077;SDS011;26823;42.662;23.352;2024-01-11T08:35:44;40.45;;;26.13;;
41077;SDS011;26823;42.662;23.352;2024-01-11T08:38:09;38.95;;;24.05;;
41077;SDS011;26823;42.662;23.352;2024-01-11T08:40:35;44.92;;;23.75;;
41077;SDS011;26823;42.662;23.352;2024-01-11T08:43:19;38.93;;;22.77;;
41077;SDS011;26823;42.662;23.352;2024-01-11T08:45:44;39.65;;;23.50;;
41077;SDS011;26823;42.662;23.352;2024-01-11T08:48:09;43.50;;;23.80;;
41077;SDS011;26823;42.662;23.352;2024-01-11T08:50:36;47.70;;;23.38;;
41077;SDS011;26823;42.662;23.352;2024-01-11T08:53:02;47.90;;;24.40;;
41077;SDS011;26823;42.662;23.352;2024-01-11T08:55:27;41.88;;;22.55;;
41077;SDS011;26823;42.662;23.352;2024-01-11T08:57:53;40.17;;;22.88;;
41077;SDS011;26823;42.662;23.352;2024-01-11T09:00:20;47.72;;;23.05;;
41077;SDS011;26823;42.662;23.352;2024-01-11T09:02:45;47.13;;;23.13;;
41077;SDS011;26823;42.662;23.352;2024-01-11T09:05:11;43.97;;;23.50;;
41077;SDS011;26823;42.662;23.352;2024-01-11T09:07:39;39.08;;;23.30;;
41077;SDS011;26823;42.662;23.352;2024-01-11T09:10:04;39.80;;;22.50;;
41077;SDS011;26823;42.662;23.352;2024-01-11T09:12:30;37.50;;;23.15;;
41077;SDS011;26823;42.662;23.352;2024-01-11T09:14:56;43.30;;;26.23;;
41077;SDS011;26823;42.662;23.352;2024-01-11T09:17:21;48.33;;;27.55;;
41077;SDS011;26823;42.662;23.352;2024-01-11T09:19:46;42.65;;;24.90;;
41077;SDS011;26823;42.662;23.352;2024-01-11T09:22:12;43.88;;;25.02;;
41077;SDS011;26823;42.662;23.352;2024-01-11T09:24:37;42.55;;;25.73;;
41077;SDS011;26823;42.662;23.352;2024-01-11T09:27:03;42.67;;;25.42;;
41077;SDS011;26823;42.662;23.352;2024-01-11T09:29:29;41.75;;;24.63;;
41077;SDS011;26823;42.662;23.352;2024-01-11T09:31:54;40.05;;;22.98;;
41077;SDS011;26823;42.662;23.352;2024-01-11T09:34:20;42.03;;;24.67;;
41077;SDS011;26823;42.662;23.352;2024-01-11T09:36:45;42.13;;;23.40;;
41077;SDS011;26823;42.662;23.352;2024-01-11T09:39:11;47.30;;;24.00;;
41077;SDS011;26823;42.662;23.352;2024-01-11T09:41:38;44.72;;;25.27;;
41077;SDS011;26823;42.662;23.352;2024-01-11T09:44:08;41.13;;;24.70;;
41077;SDS011;26823;42.662;23.352;2024-01-11T09:46:34;39.58;;;23.40;;
41077;SDS011;26823;42.662;23.352;2024-01-11T09:48:59;46.30;;;24.35;;
41077;SDS011;26823;42.662;23.352;2024-01-11T09:51:26;41.42;;;25.50;;
41077;SDS011;26823;42.662;23.352;2024-01-11T09:53:53;46.17;;;25.73;;
41077;SDS011;26823;42.662;23.352;2024-01-11T09:56:20;41.25;;;26.10;;
41077;SDS011;26823;42.662;23.352;2024-01-11T09:58:46;40.35;;;25.25;;
41077;SDS011;26823;42.662;23.352;2024-01-11T10:01:15;41.47;;;25.17;;
41077;SDS011;26823;42.662;23.352;2024-01-11T10:03:41;42.33;;;25.65;;
41077;SDS011;26823;42.662;23.352;2024-01-11T10:06:06;44.25;;;26.17;;
41077;SDS011;26823;42.662;23.352;2024-01-11T10:08:32;46.72;;;27.50;;
41077;SDS011;26823;42.662;23.352;2024-01-11T10:10:57;44.03;;;25.95;;
41077;SDS011;26823;42.662;23.352;2024-01-11T10:13:30;46.70;;;26.70;;
41077;SDS011;26823;42.662;23.352;2024-01-11T10:16:04;41.83;;;24.50;;
41077;SDS011;26823;42.662;23.352;2024-01-11T10:18:40;40.28;;;25.33;;
41077;SDS011;26823;42.662;23.352;2024-01-11T10:21:06;44.35;;;26.25;;
41077;SDS011;26823;42.662;23.352;2024-01-11T10:23:38;43.28;;;24.92;;
41077;SDS011;26823;42.662;23.352;2024-01-11T10:26:04;40.65;;;25.55;;
41077;SDS011;26823;42.662;23.352;2024-01-11T10:28:29;41.63;;;23.73;;
41077;SDS011;26823;42.662;23.352;2024-01-11T10:30:55;37.33;;;23.52;;
41077;SDS011;26823;42.662;23.352;2024-01-11T10:33:20;36.45;;;24.45;;
41077;SDS011;26823;42.662;23.352;2024-01-11T10:35:47;40.38;;;25.27;;
41077;SDS011;26823;42.662;23.352;2024-01-11T10:38:16;44.95;;;24.95;;
41077;SDS011;26823;42.662;23.352;2024-01-11T10:40:42;42.20;;;25.63;;
41077;SDS011;26823;42.662;23.352;2024-01-11T10:43:11;40.42;;;25.10;;
41077;SDS011;26823;42.662;23.352;2024-01-11T10:45:38;45.65;;;27.83;;
41077;SDS011;26823;42.662;23.352;2024-01-11T10:48:06;44.90;;;30.77;;
41077;SDS011;26823;42.662;23.352;2024-01-11T10:50:44;52.03;;;31.00;;
41077;SDS011;26823;42.662;23.352;2024-01-11T10:55:50;54.35;;;33.50;;
41077;SDS011;26823;42.662;23.352;2024-01-11T10:58:16;55.47;;;34.45;;
41077;SDS011;26823;42.662;23.352;2024-01-11T11:00:43;53.78;;;32.95;;
41077;SDS011;26823;42.662;23.352;2024-01-11T11:03:09;59.05;;;33.80;;
41077;SDS011;26823;42.662;23.352;2024-01-11T11:05:36;57.90;;;34.05;;
41077;SDS011;26823;42.662;23.352;2024-01-11T11:08:03;52.92;;;34.30;;
41077;SDS011;26823;42.662;23.352;2024-01-11T11:10:31;63.80;;;32.60;;
41077;SDS011;26823;42.662;23.352;2024-01-11T11:12:59;56.05;;;31.58;;
41077;SDS011;26823;42.662;23.352;2024-01-11T11:15:28;51.80;;;32.47;;
41077;SDS011;26823;42.662;23.352;2024-01-11T11:17:53;49.53;;;30.92;;
41077;SDS011;26823;42.662;23.352;2024-01-11T11:20:19;52.53;;;30.50;;
41077;SDS011;26823;42.662;23.352;2024-01-11T11:22:48;56.30;;;31.77;;
41077;SDS011;26823;42.662;23.352;2024-01-11T11:25:29;48.92;;;29.75;;
41077;SDS011;26823;42.662;23.352;2024-01-11T11:27:55;55.97;;;30.98;;
41077;SDS011;26823;42.662;23.352;2024-01-11T11:30:21;43.15;;;29.67;;
41077;SDS011;26823;42.662;23.352;2024-01-11T11:32:46;50.42;;;29.90;;
41077;SDS011;26823;42.662;23.352;2024-01-11T11:35:12;47.67;;;28.75;;
41077;SDS011;26823;42.662;23.352;2024-01-11T11:37:40;43.50;;;28.25;;
41077;SDS011;26823;42.662;23.352;2024-01-11T11:40:06;47.35;;;28.83;;
41077;SDS011;26823;42.662;23.352;2024-01-11T11:42:36;44.85;;;28.17;;
41077;SDS011;26823;42.662;23.352;2024-01-11T11:45:02;45.22;;;27.98;;
41077;SDS011;26823;42.662;23.352;2024-01-11T11:47:34;47.58;;;27.58;;
41077;SDS011;26823;42.662;23.352;2024-01-11T11:50:05;43.03;;;28.60;;
41077;SDS011;26823;42.662;23.352;2024-01-11T11:52:36;47.88;;;28.45;;
41077;SDS011;26823;42.662;23.352;2024-01-11T11:55:03;46.42;;;26.75;;
41077;SDS011;26823;42.662;23.352;2024-01-11T11:57:31;43.25;;;25.83;;
41077;SDS011;26823;42.662;23.352;2024-01-11T11:59:57;41.80;;;27.88;;
41077;SDS011;26823;42.662;23.352;2024-01-11T12:02:32;46.17;;;27.67;;
41077;SDS011;26823;42.662;23.352;2024-01-11T12:05:01;44.42;;;26.20;;
41077;SDS011;26823;42.662;23.352;2024-01-11T12:07:27;43.28;;;27.27;;
41077;SDS011;26823;42.662;23.352;2024-01-11T12:09:52;45.40;;;28.17;;
41077;SDS011;26823;42.662;23.352;2024-01-11T12:12:18;40.50;;;25.73;;
41077;SDS011;26823;42.662;23.352;2024-01-11T12:14:45;37.55;;;25.05;;
41077;SDS011;26823;42.662;23.352;2024-01-11T12:17:11;40.78;;;26.10;;
41077;SDS011;26823;42.662;23.352;2024-01-11T12:19:37;39.00;;;25.05;;
41077;SDS011;26823;42.662;23.352;2024-01-11T12:22:02;37.65;;;23.90;;
41077;SDS011;26823;42.662;23.352;2024-01-11T12:24:28;38.58;;;24.67;;
41077;SDS011;26823;42.662;23.352;2024-01-11T12:26:56;41.00;;;24.42;;
41077;SDS011;26823;42.662;23.352;2024-01-11T12:29:23;35.88;;;24.38;;
41077;SDS011;26823;42.662;23.352;2024-01-11T12:31:48;30.35;;;18.75;;
41077;SDS011;26823;42.662;23.352;2024-01-11T12:34:15;20.45;;;12.77;;
41077;SDS011;26823;42.662;23.352;2024-01-11T12:36:41;19.67;;;11.07;;
41077;SDS011;26823;42.662;23.352;2024-01-11T12:39:07;18.23;;;10.27;;
41077;SDS011;26823;42.662;23.352;2024-01-11T12:41:34;13.88;;;9.82;;
41077;SDS011;26823;42.662;23.352;2024-01-11T12:44:00;14.48;;;10.13;;
41077;SDS011;26823;42.662;23.352;2024-01-11T12:46:26;17.92;;;11.45;;
41077;SDS011;26823;42.662;23.352;2024-01-11T12:48:51;17.48;;;11.43;;
41077;SDS011;26823;42.662;23.352;2024-01-11T12:51:17;14.32;;;9.90;;
41077;SDS011;26823;42.662;23.352;2024-01-11T12:53:51;12.25;;;9.35;;
41077;SDS011;26823;42.662;23.352;2024-01-11T12:56:17;15.37;;;9.73;;
41077;SDS011;26823;42.662;23.352;2024-01-11T12:58:43;15.45;;;9.90;;
41077;SDS011;26823;42.662;23.352;2024-01-11T13:01:11;15.45;;;11.02;;
41077;SDS011;26823;42.662;23.352;2024-01-11T13:03:38;13.23;;;9.95;;
41077;SDS011;26823;42.662;23.352;2024-01-11T13:06:05;13.43;;;8.38;;
41077;SDS011;26823;42.662;23.352;2024-01-11T13:08:31;8.10;;;6.95;;
41077;SDS011;26823;42.662;23.352;2024-01-11T13:10:56;12.00;;;6.88;;
41077;SDS011;26823;42.662;23.352;2024-01-11T13:13:22;6.25;;;5.20;;
41077;SDS011;26823;42.662;23.352;2024-01-11T13:15:47;11.57;;;5.45;;
41077;SDS011;26823;42.662;23.352;2024-01-11T13:18:13;6.85;;;5.30;;
41077;SDS011;26823;42.662;23.352;2024-01-11T13:20:38;8.18;;;5.38;;
41077;SDS011;26823;42.662;23.352;2024-01-11T13:25:45;5.03;;;4.20;;
41077;SDS011;26823;42.662;23.352;2024-01-11T13:28:11;4.72;;;4.28;;
41077;SDS011;26823;42.662;23.352;2024-01-11T13:30:40;4.57;;;3.85;;
41077;SDS011;26823;42.662;23.352;2024-01-11T13:33:06;6.90;;;4.47;;
41077;SDS011;26823;42.662;23.352;2024-01-11T13:35:39;5.75;;;4.45;;
41077;SDS011;26823;42.662;23.352;2024-01-11T13:38:05;6.25;;;4.38;;
41077;SDS011;26823;42.662;23.352;2024-01-11T13:40:31;13.88;;;4.95;;
41077;SDS011;26823;42.662;23.352;2024-01-11T13:42:57;5.35;;;3.20;;
41077;SDS011;26823;42.662;23.352;2024-01-11T13:45:23;10.32;;;3.97;;
41077;SDS011;26823;42.662;23.352;2024-01-11T13:47:51;5.65;;;3.60;;
41077;SDS011;26823;42.662;23.352;2024-01-11T13:50:20;5.65;;;4.05;;
41077;SDS011;26823;42.662;23.352;2024-01-11T13:52:47;5.50;;;3.92;;
41077;SDS011;26823;42.662;23.352;2024-01-11T13:55:13;5.88;;;4.18;;
41077;SDS011;26823;42.662;23.352;2024-01-11T13:57:39;5.90;;;3.90;;
41077;SDS011;26823;42.662;23.352;2024-01-11T14:00:05;4.95;;;3.92;;
41077;SDS011;26823;42.662;23.352;2024-01-11T14:02:31;6.15;;;4.53;;
41077;SDS011;26823;42.662;23.352;2024-01-11T14:04:57;7.03;;;4.45;;
41077;SDS011;26823;42.662;23.352;2024-01-11T14:07:23;8.52;;;4.55;;
41077;SDS011;26823;42.662;23.352;2024-01-11T14:09:49;10.57;;;5.30;;
41077;SDS011;26823;42.662;23.352;2024-01-11T14:12:14;8.30;;;4.80;;
41077;SDS011;26823;42.662;23.352;2024-01-11T14:14:40;7.53;;;4.43;;